METAR Data
IDs: Format: Raw Decoded Include TAF

Data at: 1506 UTC 25 Jan 2020

METAR for:KMRB (Martinsburg/E West V, WV, US)
Text:KMRB 251453Z 01005KT 10SM OVC015 05/04 A2987 RMK AO2 SLP117 60001 T00500039 53001
Temperature: 5.0°C ( 41°F)
Dewpoint: 3.9°C ( 39°F) [RH = 93%]
Pressure (altimeter):29.87 inches Hg (1011.6 mb) [Sea level pressure: 1011.7 mb]
Winds:from the N (10 degrees) at 6 MPH (5 knots; 2.6 m/s)
Visibility:10 or more sm (16+ km)
Ceiling:1500 feet AGL
Clouds: overcast cloud deck at 1500 feet AGL